Portada
METAR-TAF:

METAR-TAF

Aeroports :

Aoba Island, Vanuatu

latitud: 15-18-24S, longitud: 167-58-02E, altitud: 51 m

Observació

L'informe es va fer fa 3 hores i 20 minuts, a les 06:00 UTC
Vent 5 kt del Est
Temperatura 28°C
Humitat 84%
Pressió 1010 hPa
Visibilitat 10 km o més
Núvols disperses a una alçada de 2000 ft
Cel ennuvolat a una alçada de 30000 ft

METAR: NVSG 060600Z 10005KT 9999 SCT020 BKN300 28/25 Q1010

Hora: 20:20 (09:20 UTC)

Pronòstic

L'informe es va fer fa 4 hores i 50 minuts, a les 04:30 UTC
Pronòstic vàlid del 06 a les 06 UTC al 07 a les 06 UTC
Vent 4 kt amb direcció variable
Visibilitat 10 km o més
Escasses núvols a una alçada de 2200 ft

TAF: NVSG 060430Z 0606/0706 VRB04KT 9999 FEW022

Observacions i pronòstics meteorològics de més de 4000 aeroports (METAR i TAF).

Les estacions disponibles són els punts grocs i vermells al mapa.

Posi el ratolí al punt desitjat per veure el nom de l'estació.

Feu clic per veure les observacions i els pronòstics meteorològics.

Per canviar el mapa: feu clic els botons verds amb una creu de color negre per apropar; al botó verd amb un guió per allunyar la imatge; o en les fletxes verdes per a mapes adjacents.


METAR-TAF: